createdAt,value
2023-02-07T00:00:21.256Z,986.69
2023-02-07T00:01:21.248Z,986.67
2023-02-07T00:02:21.304Z,986.73
2023-02-07T00:03:21.233Z,986.72
2023-02-07T00:04:21.231Z,986.63
2023-02-07T00:05:21.343Z,986.75
2023-02-07T00:06:21.361Z,986.69
2023-02-07T00:07:21.172Z,986.67
2023-02-07T00:08:21.158Z,986.74
2023-02-07T00:09:21.174Z,986.65
2023-02-07T00:10:21.154Z,986.55
2023-02-07T00:11:21.145Z,986.62
2023-02-07T00:12:21.130Z,986.63
2023-02-07T00:13:21.106Z,986.63
2023-02-07T00:14:21.173Z,986.49
2023-02-07T00:15:21.089Z,986.49
2023-02-07T00:16:21.260Z,986.51
2023-02-07T00:17:21.075Z,986.40
2023-02-07T00:18:21.072Z,986.39
2023-02-07T00:19:21.120Z,986.39
2023-02-07T00:20:21.035Z,986.49
2023-02-07T00:21:21.014Z,986.49
2023-02-07T00:22:20.996Z,986.44
2023-02-07T00:23:21.016Z,986.25
2023-02-07T00:24:20.980Z,986.48
2023-02-07T00:25:20.999Z,986.48
2023-02-07T00:26:20.986Z,986.43
2023-02-07T00:27:20.945Z,986.39
2023-02-07T00:28:21.116Z,986.48
2023-02-07T00:29:20.952Z,986.48
2023-02-07T00:30:20.975Z,986.47
2023-02-07T00:31:21.068Z,986.37
2023-02-07T00:32:20.893Z,986.45
2023-02-07T00:33:20.890Z,986.40
2023-02-07T00:34:20.896Z,986.47
2023-02-07T00:35:20.872Z,986.43
2023-02-07T00:36:20.890Z,986.35
2023-02-07T00:37:20.870Z,986.39
2023-02-07T00:38:20.821Z,986.43
2023-02-07T00:39:20.841Z,986.48
2023-02-07T00:40:20.821Z,986.32
2023-02-07T00:41:20.832Z,986.30
2023-02-07T00:42:20.783Z,986.44
2023-02-07T00:43:29.259Z,986.38
2023-02-07T00:44:20.777Z,986.33
2023-02-07T00:45:20.836Z,986.38
2023-02-07T00:46:20.838Z,986.44
2023-02-07T00:47:20.729Z,986.28
2023-02-07T00:48:20.727Z,986.33
2023-02-07T00:49:20.712Z,986.21
2023-02-07T00:50:20.695Z,986.26
2023-02-07T00:51:20.696Z,986.30
2023-02-07T00:52:20.684Z,986.15
2023-02-07T00:53:20.673Z,986.18
2023-02-07T00:54:20.665Z,986.09
2023-02-07T00:55:20.639Z,986.14
2023-02-07T00:56:20.701Z,985.95
2023-02-07T00:57:20.633Z,986.04
2023-02-07T00:58:20.613Z,985.98
2023-02-07T00:59:20.611Z,985.98
2023-02-07T01:00:20.628Z,985.87
2023-02-07T01:01:20.617Z,985.96
2023-02-07T01:02:20.594Z,985.86
2023-02-07T01:03:20.568Z,985.80
2023-02-07T01:04:20.608Z,985.90
2023-02-07T01:05:20.538Z,985.82
2023-02-07T01:06:20.540Z,985.83
2023-02-07T01:07:20.583Z,985.83
2023-02-07T01:08:20.557Z,985.88
2023-02-07T01:09:20.508Z,985.81
2023-02-07T01:10:20.496Z,985.83
2023-02-07T01:11:21.442Z,985.84
2023-02-07T01:12:20.491Z,985.80
2023-02-07T01:13:20.504Z,985.83
2023-02-07T01:14:20.472Z,985.75
2023-02-07T01:15:20.443Z,985.78
2023-02-07T01:16:20.406Z,985.74
2023-02-07T01:17:20.424Z,985.85
2023-02-07T01:18:20.399Z,985.83
2023-02-07T01:19:20.408Z,985.89
2023-02-07T01:20:20.432Z,985.94
2023-02-07T01:21:20.382Z,985.91
2023-02-07T01:22:20.362Z,985.91
2023-02-07T01:23:20.441Z,985.92
2023-02-07T01:24:20.346Z,985.82
2023-02-07T01:25:20.334Z,985.82
2023-02-07T01:26:20.320Z,985.91
2023-02-07T01:27:20.298Z,985.85
2023-02-07T01:28:20.377Z,985.84
2023-02-07T01:29:20.301Z,985.84
2023-02-07T01:30:20.266Z,985.89
2023-02-07T01:31:20.339Z,985.80
2023-02-07T01:32:20.245Z,985.85
2023-02-07T01:33:20.245Z,985.93
2023-02-07T01:34:20.232Z,985.94
2023-02-07T01:35:20.218Z,986.00
2023-02-07T01:36:20.208Z,985.98
2023-02-07T01:37:20.220Z,986.00
2023-02-07T01:38:20.174Z,985.96
2023-02-07T01:39:20.230Z,985.93
2023-02-07T01:40:20.163Z,985.85
2023-02-07T01:41:20.151Z,985.87
2023-02-07T01:42:20.136Z,985.83
2023-02-07T01:43:20.135Z,985.82
2023-02-07T01:44:20.113Z,985.80
2023-02-07T01:45:20.352Z,985.80
2023-02-07T01:46:20.125Z,985.71
2023-02-07T01:47:20.204Z,985.67
2023-02-07T01:48:20.070Z,985.62
2023-02-07T01:49:20.099Z,985.57
2023-02-07T01:50:20.046Z,985.50
2023-02-07T01:51:20.104Z,985.46
2023-02-07T01:52:20.034Z,985.40
2023-02-07T01:53:20.023Z,985.36
2023-02-07T01:54:20.027Z,985.22
2023-02-07T01:55:19.989Z,985.22
2023-02-07T01:56:30.756Z,985.21
2023-02-07T01:57:19.970Z,985.11
2023-02-07T01:58:20.412Z,985.10
2023-02-07T01:59:19.991Z,985.13
2023-02-07T02:00:20.257Z,985.06
2023-02-07T02:01:19.970Z,985.13
2023-02-07T02:02:19.961Z,985.05
2023-02-07T02:03:19.925Z,985.07
2023-02-07T02:04:19.881Z,984.97
2023-02-07T02:05:19.891Z,985.00
2023-02-07T02:06:20.043Z,984.98
2023-02-07T02:07:19.876Z,984.93
2023-02-07T02:08:20.581Z,984.94
2023-02-07T02:09:19.841Z,984.91
2023-02-07T02:10:19.834Z,984.94
2023-02-07T02:11:19.868Z,984.90
2023-02-07T02:12:19.998Z,984.88
2023-02-07T02:13:19.801Z,984.81
2023-02-07T02:14:19.789Z,984.80
2023-02-07T02:15:19.792Z,984.74
2023-02-07T02:16:19.796Z,984.74
2023-02-07T02:17:19.788Z,984.74
2023-02-07T02:18:19.730Z,984.71
2023-02-07T02:19:19.738Z,984.67
2023-02-07T02:20:19.717Z,984.66
2023-02-07T02:21:19.716Z,984.65
2023-02-07T02:22:19.762Z,984.64
2023-02-07T02:23:19.697Z,984.64
2023-02-07T02:24:19.687Z,984.58
2023-02-07T02:25:19.709Z,984.54
2023-02-07T02:26:19.661Z,984.53
2023-02-07T02:27:19.667Z,984.50
2023-02-07T02:28:19.955Z,984.44
2023-02-07T02:29:19.689Z,984.44
2023-02-07T02:30:19.648Z,984.44
2023-02-07T02:31:19.632Z,984.40
2023-02-07T02:32:19.592Z,984.37
2023-02-07T02:33:19.596Z,984.37
2023-02-07T02:34:19.622Z,984.39
2023-02-07T02:35:19.556Z,984.28
2023-02-07T02:36:19.549Z,984.32
2023-02-07T02:37:19.547Z,984.35
2023-02-07T02:38:19.576Z,984.31
2023-02-07T02:39:19.515Z,984.31
2023-02-07T02:40:19.503Z,984.22
2023-02-07T02:41:19.517Z,984.14
2023-02-07T02:42:19.480Z,984.16
2023-02-07T02:43:19.469Z,984.09
2023-02-07T02:44:19.460Z,984.09
2023-02-07T02:45:19.452Z,984.11
2023-02-07T02:46:19.469Z,983.97
2023-02-07T02:47:19.442Z,984.02
2023-02-07T02:48:19.407Z,984.00
2023-02-07T02:49:19.419Z,983.92
2023-02-07T02:50:19.390Z,983.95
2023-02-07T02:51:19.432Z,983.87
2023-02-07T02:52:19.372Z,983.84
2023-02-07T02:53:19.368Z,983.84
2023-02-07T02:54:19.436Z,983.83
2023-02-07T02:55:19.338Z,983.84
2023-02-07T02:56:19.341Z,983.82
2023-02-07T02:57:19.393Z,983.85
2023-02-07T02:58:20.311Z,983.84
2023-02-07T02:59:19.309Z,983.82
2023-02-07T03:00:19.318Z,983.79
2023-02-07T03:01:19.300Z,983.83
2023-02-07T03:02:19.284Z,983.86
2023-02-07T03:03:19.296Z,983.82
2023-02-07T03:04:19.254Z,983.81
2023-02-07T03:05:19.350Z,983.82
2023-02-07T03:06:19.251Z,983.83
2023-02-07T03:07:19.245Z,983.81
2023-02-07T03:08:19.197Z,983.88
2023-02-07T03:09:19.192Z,983.93
2023-02-07T03:10:19.214Z,983.92
2023-02-07T03:11:19.462Z,983.93
2023-02-07T03:12:19.172Z,983.95
2023-02-07T03:13:19.190Z,983.99
2023-02-07T03:14:19.135Z,984.01
2023-02-07T03:15:19.177Z,983.98
2023-02-07T03:16:19.180Z,983.94
2023-02-07T03:17:19.179Z,983.95
2023-02-07T03:18:19.101Z,983.86
2023-02-07T03:19:19.075Z,983.83
2023-02-07T03:20:19.058Z,983.81
2023-02-07T03:21:19.084Z,983.76
2023-02-07T03:22:19.048Z,983.63
2023-02-07T03:23:19.055Z,983.62
2023-02-07T03:24:19.030Z,983.53
2023-02-07T03:25:19.038Z,983.52
2023-02-07T03:26:19.544Z,983.49
2023-02-07T03:27:19.230Z,983.46
2023-02-07T03:28:19.028Z,983.49
2023-02-07T03:29:18.974Z,983.36
2023-02-07T03:30:18.982Z,983.40
2023-02-07T03:31:19.025Z,983.46
2023-02-07T03:32:18.926Z,983.39
2023-02-07T03:33:18.982Z,983.35
2023-02-07T03:34:18.916Z,983.28
2023-02-07T03:35:18.907Z,983.27
2023-02-07T03:36:18.900Z,983.18
2023-02-07T03:37:18.906Z,983.14
2023-02-07T03:38:18.897Z,983.09
2023-02-07T03:39:18.865Z,983.14
2023-02-07T03:40:18.842Z,983.18
2023-02-07T03:41:18.841Z,983.19
2023-02-07T03:42:18.849Z,983.21
2023-02-07T03:43:18.806Z,983.19
2023-02-07T03:44:18.814Z,983.17
2023-02-07T03:45:18.936Z,983.04
2023-02-07T03:46:18.825Z,982.98
2023-02-07T03:47:18.774Z,982.96
2023-02-07T03:48:18.774Z,982.93
2023-02-07T03:49:18.782Z,982.95
2023-02-07T03:50:18.727Z,982.93
2023-02-07T03:51:18.910Z,982.94
2023-02-07T03:52:18.746Z,982.92
2023-02-07T03:53:18.734Z,982.95
2023-02-07T03:54:18.715Z,982.91
2023-02-07T03:55:18.748Z,982.90
2023-02-07T03:56:18.678Z,982.84
2023-02-07T03:57:18.664Z,982.87
2023-02-07T03:58:18.699Z,982.81
2023-02-07T03:59:18.650Z,982.86
2023-02-07T04:00:18.718Z,982.92
2023-02-07T04:01:18.697Z,982.89
2023-02-07T04:02:18.650Z,982.88
2023-02-07T04:03:18.616Z,982.94
2023-02-07T04:04:18.603Z,982.94
2023-02-07T04:05:18.582Z,982.94
2023-02-07T04:06:18.638Z,982.83
2023-02-07T04:07:18.561Z,982.84
2023-02-07T04:08:18.624Z,982.80
2023-02-07T04:09:18.536Z,982.80
2023-02-07T04:10:18.705Z,982.79
2023-02-07T04:11:18.578Z,982.77
2023-02-07T04:12:18.496Z,982.74
2023-02-07T04:13:18.484Z,982.79
2023-02-07T04:14:18.475Z,982.82
2023-02-07T04:15:18.476Z,982.83
2023-02-07T04:16:18.514Z,982.79
2023-02-07T04:17:18.476Z,982.81
2023-02-07T04:18:18.440Z,982.79
2023-02-07T04:19:18.426Z,982.74
2023-02-07T04:20:18.677Z,982.65
2023-02-07T04:21:18.928Z,982.61
2023-02-07T04:22:18.465Z,982.69
2023-02-07T04:23:18.390Z,982.69
2023-02-07T04:24:18.380Z,982.73
2023-02-07T04:25:18.372Z,982.82
2023-02-07T04:26:18.343Z,982.87
2023-02-07T04:27:18.347Z,982.90
2023-02-07T04:28:18.352Z,982.93
2023-02-07T04:29:18.324Z,982.95
2023-02-07T04:30:18.304Z,982.92
2023-02-07T04:31:18.363Z,982.94
2023-02-07T04:32:18.277Z,982.91
2023-02-07T04:33:18.289Z,982.93
2023-02-07T04:34:18.258Z,982.93
2023-02-07T04:35:18.258Z,982.94
2023-02-07T04:36:18.243Z,982.92
2023-02-07T04:37:18.230Z,982.82
2023-02-07T04:38:18.285Z,982.81
2023-02-07T04:39:18.213Z,982.78
2023-02-07T04:40:18.183Z,982.70
2023-02-07T04:41:18.178Z,982.69
2023-02-07T04:42:18.181Z,982.65
2023-02-07T04:43:18.171Z,982.73
2023-02-07T04:44:18.209Z,982.78
2023-02-07T04:45:18.138Z,982.86
2023-02-07T04:46:18.132Z,982.90
2023-02-07T04:47:18.133Z,982.90
2023-02-07T04:48:18.159Z,982.89
2023-02-07T04:49:18.091Z,982.79
2023-02-07T04:50:18.079Z,982.84
2023-02-07T04:51:18.075Z,982.85
2023-02-07T04:52:18.079Z,982.85
2023-02-07T04:53:18.041Z,982.89
2023-02-07T04:54:18.045Z,982.86
2023-02-07T04:55:18.021Z,982.89
2023-02-07T04:56:18.021Z,982.89
2023-02-07T04:57:18.031Z,982.91
2023-02-07T04:58:17.982Z,982.91
2023-02-07T04:59:17.994Z,982.96
2023-02-07T05:00:17.977Z,982.91
2023-02-07T05:01:17.999Z,982.89
2023-02-07T05:02:17.970Z,982.85
2023-02-07T05:03:17.965Z,982.85
2023-02-07T05:04:18.067Z,982.87
2023-02-07T05:05:17.933Z,982.84
2023-02-07T05:06:17.908Z,982.87
2023-02-07T05:07:17.915Z,982.79
2023-02-07T05:08:17.916Z,982.78
2023-02-07T05:09:17.880Z,982.77
2023-02-07T05:10:17.892Z,982.78
2023-02-07T05:11:17.870Z,982.75
2023-02-07T05:12:17.928Z,982.74
2023-02-07T05:13:17.831Z,982.71
2023-02-07T05:14:17.826Z,982.71
2023-02-07T05:15:17.829Z,982.73
2023-02-07T05:16:17.881Z,982.78
2023-02-07T05:17:17.840Z,982.71
2023-02-07T05:18:17.777Z,982.63
2023-02-07T05:19:17.772Z,982.62
2023-02-07T05:20:17.775Z,982.63
2023-02-07T05:21:17.746Z,982.62
2023-02-07T05:22:17.760Z,982.69
2023-02-07T05:23:17.754Z,982.70
2023-02-07T05:24:17.728Z,982.73
2023-02-07T05:25:17.719Z,982.83
2023-02-07T05:26:17.705Z,982.86
2023-02-07T05:27:17.682Z,982.84
2023-02-07T05:28:17.783Z,982.85
2023-02-07T05:29:17.661Z,982.78
2023-02-07T05:30:17.675Z,982.81
2023-02-07T05:31:17.761Z,982.73
2023-02-07T05:32:17.652Z,982.71
2023-02-07T05:33:17.612Z,982.76
2023-02-07T05:34:17.623Z,982.83
2023-02-07T05:35:17.650Z,982.82
2023-02-07T05:36:17.586Z,982.84
2023-02-07T05:37:17.604Z,982.85
2023-02-07T05:38:17.572Z,982.86
2023-02-07T05:39:17.560Z,982.87
2023-02-07T05:40:17.547Z,982.83
2023-02-07T05:41:17.523Z,982.78
2023-02-07T05:42:17.570Z,982.73
2023-02-07T05:43:17.502Z,982.65
2023-02-07T05:44:17.494Z,982.65
2023-02-07T05:45:17.488Z,982.64
2023-02-07T05:46:17.548Z,982.62
2023-02-07T05:47:17.459Z,982.64
2023-02-07T05:48:17.473Z,982.63
2023-02-07T05:49:17.438Z,982.55
2023-02-07T05:50:17.438Z,982.56
2023-02-07T05:51:17.413Z,982.59
2023-02-07T05:52:17.454Z,982.54
2023-02-07T05:53:17.410Z,982.65
2023-02-07T05:54:17.475Z,982.73
2023-02-07T05:55:17.391Z,982.72
2023-02-07T05:56:17.361Z,982.71
2023-02-07T05:57:17.379Z,982.67
2023-02-07T05:58:17.356Z,982.73
2023-02-07T05:59:17.332Z,982.80
2023-02-07T06:00:17.338Z,982.80
2023-02-07T06:01:17.315Z,982.85
2023-02-07T06:02:17.396Z,982.84
2023-02-07T06:03:17.380Z,982.77
2023-02-07T06:04:17.288Z,982.73
2023-02-07T06:05:17.263Z,982.66
2023-02-07T06:06:17.263Z,982.62
2023-02-07T06:07:17.246Z,982.62
2023-02-07T06:08:17.231Z,982.65
2023-02-07T06:09:17.236Z,982.71
2023-02-07T06:10:17.255Z,982.70
2023-02-07T06:11:17.196Z,982.76
2023-02-07T06:12:17.203Z,982.77
2023-02-07T06:13:17.175Z,982.83
2023-02-07T06:14:17.205Z,982.84
2023-02-07T06:15:17.169Z,982.84
2023-02-07T06:16:17.192Z,982.78
2023-02-07T06:17:17.174Z,982.77
2023-02-07T06:18:17.115Z,982.79
2023-02-07T06:19:17.149Z,982.82
2023-02-07T06:20:17.122Z,982.79
2023-02-07T06:21:17.098Z,982.77
2023-02-07T06:22:17.081Z,982.73
2023-02-07T06:23:17.073Z,982.70
2023-02-07T06:24:17.109Z,982.70
2023-02-07T06:25:17.072Z,982.63
2023-02-07T06:26:17.044Z,982.62
2023-02-07T06:27:17.028Z,982.70
2023-02-07T06:28:17.053Z,982.69
2023-02-07T06:29:17.001Z,982.65
2023-02-07T06:30:17.025Z,982.59
2023-02-07T06:31:17.068Z,982.52
2023-02-07T06:32:16.978Z,982.56
2023-02-07T06:33:16.970Z,982.62
2023-02-07T06:34:16.960Z,982.64
2023-02-07T06:35:16.966Z,982.67
2023-02-07T06:36:16.932Z,982.73
2023-02-07T06:37:16.915Z,982.78
2023-02-07T06:38:16.936Z,982.80
2023-02-07T06:39:16.884Z,982.73
2023-02-07T06:40:16.920Z,982.70
2023-02-07T06:41:16.870Z,982.66
2023-02-07T06:42:16.882Z,982.61
2023-02-07T06:43:16.863Z,982.67
2023-02-07T06:44:16.850Z,982.64
2023-02-07T06:45:16.833Z,982.68
2023-02-07T06:46:16.880Z,982.67
2023-02-07T06:47:16.834Z,982.74
2023-02-07T06:48:16.840Z,982.73
2023-02-07T06:49:16.798Z,982.77
2023-02-07T06:50:16.773Z,982.80
2023-02-07T06:51:16.834Z,982.77
2023-02-07T06:52:16.778Z,982.68
2023-02-07T06:53:16.744Z,982.78
2023-02-07T06:54:16.737Z,982.77
2023-02-07T06:55:16.735Z,982.70
2023-02-07T06:56:18.608Z,982.66
2023-02-07T06:57:16.735Z,982.61
2023-02-07T06:58:16.686Z,982.66
2023-02-07T06:59:16.722Z,982.71
2023-02-07T07:00:16.659Z,982.72
2023-02-07T07:01:16.697Z,982.76
2023-02-07T07:02:16.666Z,982.73
2023-02-07T07:03:16.635Z,982.76
2023-02-07T07:04:16.616Z,982.76
2023-02-07T07:05:16.629Z,982.83
2023-02-07T07:06:16.628Z,982.79
2023-02-07T07:07:16.618Z,982.77
2023-02-07T07:08:16.600Z,982.71
2023-02-07T07:09:16.572Z,982.76
2023-02-07T07:10:16.690Z,982.67
2023-02-07T07:11:16.552Z,982.70
2023-02-07T07:12:16.545Z,982.73
2023-02-07T07:13:16.535Z,982.84
2023-02-07T07:14:16.567Z,982.88
2023-02-07T07:15:16.517Z,982.94
2023-02-07T07:16:16.647Z,982.92
2023-02-07T07:17:16.489Z,982.83
2023-02-07T07:18:16.469Z,982.78
2023-02-07T07:19:16.476Z,982.75
2023-02-07T07:20:16.536Z,982.78
2023-02-07T07:21:16.444Z,982.86
2023-02-07T07:22:17.513Z,982.86
2023-02-07T07:23:16.457Z,982.85
2023-02-07T07:24:16.405Z,982.90
2023-02-07T07:25:16.411Z,982.95
2023-02-07T07:26:16.431Z,982.98
2023-02-07T07:27:16.382Z,983.06
2023-02-07T07:28:16.435Z,983.03
2023-02-07T07:29:16.383Z,983.09
2023-02-07T07:30:16.350Z,983.13
2023-02-07T07:31:16.522Z,983.10
2023-02-07T07:32:32.089Z,983.16
2023-02-07T07:33:16.319Z,983.14
2023-02-07T07:34:16.292Z,983.06
2023-02-07T07:35:18.150Z,983.09
2023-02-07T07:36:16.294Z,983.11
2023-02-07T07:37:16.267Z,983.07
2023-02-07T07:38:16.262Z,983.15
2023-02-07T07:39:16.257Z,983.12
2023-02-07T07:40:16.261Z,983.14
2023-02-07T07:41:16.236Z,983.11
2023-02-07T07:42:16.218Z,983.07
2023-02-07T07:43:16.194Z,983.02
2023-02-07T07:44:16.230Z,983.02
2023-02-07T07:45:16.192Z,983.03
2023-02-07T07:46:16.221Z,983.04
2023-02-07T07:47:16.175Z,983.04
2023-02-07T07:48:16.215Z,982.97
2023-02-07T07:49:16.134Z,982.99
2023-02-07T07:50:16.201Z,982.96
2023-02-07T07:51:16.128Z,982.98
2023-02-07T07:52:16.105Z,982.97
2023-02-07T07:53:16.095Z,982.98
2023-02-07T07:54:16.099Z,983.00
2023-02-07T07:55:16.081Z,982.98
2023-02-07T07:56:16.113Z,982.93
2023-02-07T07:57:16.049Z,982.97
2023-02-07T07:58:16.051Z,982.91
2023-02-07T07:59:23.788Z,983.00
2023-02-07T08:00:16.024Z,983.00
2023-02-07T08:01:16.067Z,983.00
2023-02-07T08:02:16.006Z,983.03
2023-02-07T08:03:16.020Z,982.98
2023-02-07T08:04:15.960Z,983.06
2023-02-07T08:05:15.986Z,982.99
2023-02-07T08:06:15.959Z,982.94
2023-02-07T08:07:15.933Z,982.97
2023-02-07T08:08:15.930Z,982.95
2023-02-07T08:09:15.919Z,983.01
2023-02-07T08:10:15.934Z,982.96
2023-02-07T08:11:15.907Z,982.96
2023-02-07T08:12:15.893Z,982.92
2023-02-07T08:13:15.946Z,982.93
2023-02-07T08:14:15.899Z,982.93
2023-02-07T08:15:15.855Z,982.96
2023-02-07T08:16:15.899Z,982.96
2023-02-07T08:17:15.839Z,982.98
2023-02-07T08:18:15.844Z,983.01
2023-02-07T08:19:15.837Z,982.99
2023-02-07T08:20:15.813Z,982.99
2023-02-07T08:21:15.825Z,983.03
2023-02-07T08:22:15.814Z,983.03
2023-02-07T08:23:15.797Z,983.02
2023-02-07T08:24:15.780Z,983.11
2023-02-07T08:25:15.759Z,983.09
2023-02-07T08:26:15.756Z,983.03
2023-02-07T08:27:15.739Z,983.05
2023-02-07T08:28:15.881Z,983.06
2023-02-07T08:29:15.714Z,983.05
2023-02-07T08:30:15.723Z,983.04
2023-02-07T08:31:15.912Z,983.05
2023-02-07T08:32:15.671Z,983.03
2023-02-07T08:33:15.727Z,983.02
2023-02-07T08:34:15.672Z,982.99
2023-02-07T08:35:15.698Z,983.05
2023-02-07T08:36:15.650Z,982.99
2023-02-07T08:37:15.629Z,982.97
2023-02-07T08:38:15.612Z,983.04
2023-02-07T08:39:15.596Z,983.06
2023-02-07T08:40:15.583Z,983.06
2023-02-07T08:41:15.599Z,983.00
2023-02-07T08:42:15.565Z,983.04
2023-02-07T08:43:15.557Z,982.99
2023-02-07T08:44:15.535Z,983.01
2023-02-07T08:45:15.607Z,982.95
2023-02-07T08:46:15.602Z,982.95
2023-02-07T08:47:17.342Z,982.99
2023-02-07T08:48:15.495Z,982.98
2023-02-07T08:49:15.500Z,982.96
2023-02-07T08:50:15.544Z,982.95
2023-02-07T08:51:15.486Z,982.95
2023-02-07T08:52:15.483Z,982.86
2023-02-07T08:53:15.464Z,982.86
2023-02-07T08:54:15.435Z,982.87
2023-02-07T08:55:15.451Z,982.90
2023-02-07T08:56:15.416Z,982.87
2023-02-07T08:57:15.408Z,982.88
2023-02-07T08:58:15.387Z,982.90
2023-02-07T08:59:15.384Z,982.91
2023-02-07T09:00:15.418Z,982.96
2023-02-07T09:01:15.435Z,982.99
2023-02-07T09:02:15.395Z,983.02
2023-02-07T09:03:15.353Z,983.13
2023-02-07T09:04:15.322Z,983.21
2023-02-07T09:05:15.332Z,983.15
2023-02-07T09:06:15.293Z,983.18
2023-02-07T09:07:15.456Z,983.18
2023-02-07T09:08:15.312Z,983.07
2023-02-07T09:09:15.319Z,983.06
2023-02-07T09:10:15.268Z,983.13
2023-02-07T09:11:15.279Z,983.17
2023-02-07T09:12:15.284Z,983.23
2023-02-07T09:13:15.251Z,983.28
2023-02-07T09:14:15.225Z,983.27
2023-02-07T09:15:15.211Z,983.29
2023-02-07T09:16:15.212Z,983.25
2023-02-07T09:17:15.192Z,983.30
2023-02-07T09:18:15.205Z,983.36
2023-02-07T09:19:15.164Z,983.34
2023-02-07T09:20:15.157Z,983.33
2023-02-07T09:21:15.134Z,983.26
2023-02-07T09:22:15.130Z,983.22
2023-02-07T09:23:15.145Z,983.20
2023-02-07T09:24:15.123Z,983.21
2023-02-07T09:25:15.115Z,983.21
2023-02-07T09:26:15.100Z,983.18
2023-02-07T09:27:15.067Z,983.17
2023-02-07T09:28:15.174Z,983.21
2023-02-07T09:29:15.052Z,983.16
2023-02-07T09:30:15.085Z,983.17
2023-02-07T09:31:15.192Z,983.13
2023-02-07T09:32:15.048Z,983.12
2023-02-07T09:33:15.036Z,983.08
2023-02-07T09:34:15.045Z,983.07
2023-02-07T09:35:14.983Z,983.09
2023-02-07T09:36:14.998Z,983.13
2023-02-07T09:37:15.023Z,983.14
2023-02-07T09:38:14.962Z,983.23
2023-02-07T09:39:14.981Z,983.17
2023-02-07T09:40:14.952Z,983.19
2023-02-07T09:41:14.953Z,983.20
2023-02-07T09:42:14.912Z,983.20
2023-02-07T09:43:15.128Z,983.19
2023-02-07T09:44:15.179Z,983.11
2023-02-07T09:45:15.057Z,983.11
2023-02-07T09:46:14.972Z,983.17
2023-02-07T09:47:14.854Z,983.12
2023-02-07T09:48:14.857Z,983.08
2023-02-07T09:49:14.852Z,982.99
2023-02-07T09:50:14.837Z,982.99
2023-02-07T09:51:14.842Z,982.98
2023-02-07T09:52:14.840Z,982.91
2023-02-07T09:53:16.517Z,982.89
2023-02-07T09:54:14.828Z,982.94
2023-02-07T09:55:14.794Z,982.98
2023-02-07T09:56:14.767Z,982.99
2023-02-07T09:57:14.774Z,983.00
2023-02-07T09:58:14.779Z,982.98
2023-02-07T09:59:14.747Z,983.00
2023-02-07T10:00:14.722Z,982.98
2023-02-07T10:01:14.738Z,982.95
2023-02-07T10:02:14.708Z,982.99
2023-02-07T10:03:14.672Z,982.96
2023-02-07T10:04:14.683Z,982.89
2023-02-07T10:05:14.675Z,982.93
2023-02-07T10:06:18.543Z,982.90
2023-02-07T10:07:14.634Z,982.92
2023-02-07T10:08:14.633Z,982.93
2023-02-07T10:09:14.615Z,983.05
2023-02-07T10:10:14.630Z,983.07
2023-02-07T10:11:14.610Z,983.10
2023-02-07T10:12:14.590Z,983.13
2023-02-07T10:13:14.578Z,983.20
2023-02-07T10:14:14.565Z,983.17
2023-02-07T10:15:14.543Z,983.20
2023-02-07T10:16:14.558Z,983.10
2023-02-07T10:17:25.822Z,983.10
2023-02-07T10:18:14.531Z,983.17
2023-02-07T10:19:14.512Z,983.12
2023-02-07T10:20:14.518Z,983.10
2023-02-07T10:21:14.550Z,983.12
2023-02-07T10:22:14.514Z,983.10
2023-02-07T10:23:15.269Z,983.16
2023-02-07T10:24:14.449Z,983.12
2023-02-07T10:25:14.496Z,983.12
2023-02-07T10:26:14.426Z,983.12
2023-02-07T10:27:14.455Z,983.13
2023-02-07T10:28:14.484Z,983.11
2023-02-07T10:29:14.437Z,983.14
2023-02-07T10:30:14.396Z,983.10
2023-02-07T10:31:14.504Z,983.10
2023-02-07T10:32:14.464Z,983.12
2023-02-07T10:33:14.401Z,983.14
2023-02-07T10:34:14.344Z,983.14
2023-02-07T10:35:14.329Z,983.16
2023-02-07T10:36:14.354Z,983.20
2023-02-07T10:37:14.328Z,983.17
2023-02-07T10:38:14.326Z,983.17
2023-02-07T10:39:14.387Z,983.22
2023-02-07T10:40:14.365Z,983.24
2023-02-07T10:41:14.264Z,983.26
2023-02-07T10:42:14.261Z,983.23
2023-02-07T10:43:14.268Z,983.29
2023-02-07T10:44:14.250Z,983.30
2023-02-07T10:45:14.274Z,983.33
2023-02-07T10:46:14.265Z,983.29
2023-02-07T10:47:14.206Z,983.28
2023-02-07T10:48:14.859Z,983.31
2023-02-07T10:49:14.189Z,983.30
2023-02-07T10:50:18.673Z,983.29
2023-02-07T10:51:14.252Z,983.35
2023-02-07T10:52:14.158Z,983.34
2023-02-07T10:53:14.150Z,983.45
2023-02-07T10:54:14.141Z,983.49
2023-02-07T10:55:14.147Z,983.52
2023-02-07T10:56:14.142Z,983.53
2023-02-07T10:57:14.125Z,983.56
2023-02-07T10:58:22.481Z,983.51
2023-02-07T10:59:14.101Z,983.51
2023-02-07T11:00:14.071Z,983.54
2023-02-07T11:01:14.057Z,983.52
2023-02-07T11:02:14.069Z,983.56
2023-02-07T11:03:14.060Z,983.54
2023-02-07T11:04:14.021Z,983.56
2023-02-07T11:05:14.028Z,983.56
2023-02-07T11:06:13.996Z,983.57
2023-02-07T11:07:14.001Z,983.64
2023-02-07T11:08:13.984Z,983.59
2023-02-07T11:09:13.961Z,983.66
2023-02-07T11:10:13.983Z,983.67
2023-02-07T11:11:13.930Z,983.60
2023-02-07T11:12:14.018Z,983.60
2023-02-07T11:13:13.949Z,983.61
2023-02-07T11:14:13.930Z,983.64
2023-02-07T11:15:13.925Z,983.66
2023-02-07T11:16:14.019Z,983.79
2023-02-07T11:17:13.885Z,983.70
2023-02-07T11:18:13.939Z,983.72
2023-02-07T11:19:13.858Z,983.80
2023-02-07T11:20:13.840Z,983.85
2023-02-07T11:21:13.870Z,983.85
2023-02-07T11:22:13.824Z,983.86
2023-02-07T11:23:13.843Z,983.83
2023-02-07T11:24:13.821Z,983.84
2023-02-07T11:25:13.793Z,983.89
2023-02-07T11:26:13.782Z,983.95
2023-02-07T11:27:13.802Z,983.91
2023-02-07T11:28:13.880Z,983.84
2023-02-07T11:29:13.761Z,983.87
2023-02-07T11:30:13.763Z,983.89
2023-02-07T11:31:13.920Z,983.83
2023-02-07T11:32:13.878Z,983.83
2023-02-07T11:33:13.713Z,983.80
2023-02-07T11:34:13.691Z,983.78
2023-02-07T11:35:13.691Z,983.75
2023-02-07T11:36:13.720Z,983.73
2023-02-07T11:37:13.695Z,983.76
2023-02-07T11:38:13.669Z,983.75
2023-02-07T11:39:14.060Z,983.76
2023-02-07T11:40:13.679Z,983.81
2023-02-07T11:41:13.653Z,983.85
2023-02-07T11:42:13.635Z,983.85
2023-02-07T11:43:13.636Z,983.86
2023-02-07T11:44:13.617Z,983.89
2023-02-07T11:45:13.582Z,983.90
2023-02-07T11:46:13.678Z,983.89
2023-02-07T11:47:13.550Z,983.89
2023-02-07T11:48:13.580Z,983.90
2023-02-07T11:49:13.546Z,983.92
2023-02-07T11:50:13.558Z,983.96
2023-02-07T11:51:13.506Z,983.96
2023-02-07T11:52:13.492Z,983.98
2023-02-07T11:53:13.506Z,984.00
2023-02-07T11:54:13.493Z,984.07
2023-02-07T11:55:13.481Z,983.98
2023-02-07T11:56:13.443Z,983.96
2023-02-07T11:57:13.461Z,983.99
2023-02-07T11:58:13.467Z,984.03
2023-02-07T11:59:13.431Z,984.04
2023-02-07T12:00:13.451Z,984.10
2023-02-07T12:01:13.408Z,984.12
2023-02-07T12:02:13.583Z,984.19
2023-02-07T12:03:13.398Z,984.11
2023-02-07T12:04:13.374Z,984.11
2023-02-07T12:05:13.457Z,984.16
2023-02-07T12:06:13.377Z,984.15
2023-02-07T12:07:13.350Z,984.20
2023-02-07T12:08:13.366Z,984.20
2023-02-07T12:09:13.329Z,984.21
2023-02-07T12:10:13.315Z,984.15
2023-02-07T12:11:13.318Z,984.18
2023-02-07T12:12:13.399Z,984.13
2023-02-07T12:13:13.296Z,984.18
2023-02-07T12:14:13.302Z,984.21
2023-02-07T12:15:13.308Z,984.17
2023-02-07T12:16:13.315Z,984.07
2023-02-07T12:17:13.225Z,984.07
2023-02-07T12:18:13.416Z,984.17
2023-02-07T12:19:13.226Z,984.18
2023-02-07T12:20:13.220Z,984.17
2023-02-07T12:21:13.182Z,984.15
2023-02-07T12:22:13.202Z,984.16
2023-02-07T12:23:40.413Z,984.20
2023-02-07T12:24:13.195Z,984.26
2023-02-07T12:25:13.187Z,984.20
2023-02-07T12:26:13.139Z,984.26
2023-02-07T12:27:13.149Z,984.25
2023-02-07T12:28:13.137Z,984.26